createdAt,value
2023-03-31T00:02:25.816Z,84.9
2023-03-31T00:18:00.421Z,84.5
2023-03-31T00:33:34.982Z,83.1
2023-03-31T00:49:09.021Z,82.4
2023-03-31T01:04:43.062Z,81.6
2023-03-31T01:20:17.078Z,80
2023-03-31T01:35:51.235Z,81
2023-03-31T01:51:25.319Z,79.6
2023-03-31T02:06:59.364Z,80
2023-03-31T02:22:33.394Z,79
2023-03-31T02:38:07.477Z,79.2
2023-03-31T02:53:41.616Z,79.1
2023-03-31T03:09:15.655Z,79.2
2023-03-31T03:24:49.722Z,81.9
2023-03-31T03:40:23.771Z,84.1
2023-03-31T03:55:57.803Z,84.7
2023-03-31T04:11:31.830Z,86.7
2023-03-31T04:27:06.026Z,86.5
2023-03-31T04:42:40.057Z,87.5
2023-03-31T04:58:14.186Z,88
2023-03-31T05:13:48.241Z,88.7
2023-03-31T05:29:22.356Z,88.7
2023-03-31T05:44:56.382Z,89.5
2023-03-31T06:00:30.587Z,88.2
2023-03-31T06:16:04.891Z,86.4
2023-03-31T06:31:39.231Z,83.9
2023-03-31T06:47:13.510Z,82.7
2023-03-31T07:02:47.999Z,79.2
2023-03-31T07:18:22.705Z,77.2
2023-03-31T07:33:56.758Z,77.8
2023-03-31T07:49:30.899Z,77.8
2023-03-31T08:05:05.115Z,77.2
2023-03-31T08:20:39.214Z,75.6
2023-03-31T08:36:13.427Z,75.1
2023-03-31T08:51:47.650Z,74.7
2023-03-31T09:07:21.947Z,73.9
2023-03-31T09:22:56.226Z,73.8
2023-03-31T09:38:30.321Z,74.2
2023-03-31T09:54:04.385Z,76.3
2023-03-31T10:09:38.453Z,79.4
2023-03-31T10:25:12.961Z,80.8
2023-03-31T10:40:47.286Z,81.5
2023-03-31T10:56:21.390Z,80.5
2023-03-31T11:11:55.465Z,80.5
2023-03-31T11:27:29.532Z,78.7
2023-03-31T11:43:03.626Z,77.1
2023-03-31T11:58:37.711Z,67.8
2023-03-31T12:14:11.834Z,67.2
2023-03-31T12:29:45.947Z,61.3
2023-03-31T12:45:19.910Z,62.5
2023-03-31T13:00:54.137Z,61.2
2023-03-31T13:16:28.498Z,61.1
2023-03-31T13:32:02.974Z,59.3
2023-03-31T13:47:37.281Z,59.7
2023-03-31T14:03:11.722Z,61.3
2023-03-31T14:18:45.973Z,61.7
2023-03-31T14:34:20.030Z,64.1
2023-03-31T14:49:54.127Z,62.2
2023-03-31T15:05:28.333Z,61
2023-03-31T15:21:02.589Z,60.2
2023-03-31T15:36:36.868Z,61.4
2023-03-31T15:52:10.976Z,61.9
2023-03-31T16:07:45.083Z,61.7
2023-03-31T16:23:19.226Z,61.4
2023-03-31T16:38:53.403Z,60.7
2023-03-31T16:54:27.490Z,60.9
2023-03-31T17:10:01.788Z,64.4
2023-03-31T17:25:35.828Z,66
2023-03-31T17:41:09.903Z,68.2
2023-03-31T17:56:43.979Z,72.7
2023-03-31T18:12:18.092Z,78.5
2023-03-31T18:27:52.172Z,81.5
2023-03-31T18:43:26.264Z,83.7
2023-03-31T18:59:00.320Z,85.1
2023-03-31T19:14:34.446Z,86.3
2023-03-31T19:30:08.494Z,85.9
2023-03-31T19:45:42.583Z,85.1
2023-03-31T20:01:16.852Z,83
2023-03-31T20:16:51.187Z,82.9
2023-03-31T20:32:25.494Z,82.2
2023-03-31T20:47:59.696Z,83.7
2023-03-31T21:03:34.137Z,84.6
2023-03-31T21:19:08.234Z,84.8
2023-03-31T21:34:42.331Z,84.7
2023-03-31T21:50:16.323Z,84.5
2023-03-31T22:05:50.396Z,84.1
2023-03-31T22:21:24.427Z,83.9
2023-03-31T22:36:58.499Z,83.7
2023-03-31T22:52:32.501Z,83.5
2023-03-31T23:08:06.521Z,83.2
2023-03-31T23:23:40.552Z,82.4
2023-03-31T23:39:14.585Z,81.5
2023-03-31T23:54:48.592Z,81.2
